Time;durP1;ratioP1;P1;durP2;ratioP2;P2;SDS_P1;SDS_P2;PMS_P1;PMS_P2;Temp;Humidity;BMP_temperature;BMP_pressure;BME280_temperature;BME280_humidity;BME280_pressure;Samples;Min_cycle;Max_cycle;Signal;HPM_P1;HPM_P2
2022/01/22 00:00:10;;;;;;;17.88;8.60;;;;;;;3.29;100.00;103228.75;5246758;28;20064;-70
2022/01/22 00:02:42;;;;;;;17.58;9.02;;;;;;;3.26;100.00;103227.91;5247430;28;20031;-70
2022/01/22 00:05:16;;;;;;;22.23;9.30;;;;;;;3.33;100.00;103229.63;5246818;28;20029;-70
2022/01/22 00:07:48;;;;;;;23.27;10.13;;;;;;;3.32;100.00;103227.88;5246562;28;20481;-70
2022/01/22 00:10:23;;;;;;;18.67;8.50;;;;;;;3.29;100.00;103214.69;5246078;28;20032;-70
2022/01/22 00:15:33;;;;;;;20.35;9.13;;;;;;;3.32;100.00;103220.84;5246232;28;20041;-70
2022/01/22 00:18:04;;;;;;;16.77;8.48;;;;;;;3.32;100.00;103214.69;5246963;28;20044;-70
2022/01/22 00:20:38;;;;;;;16.13;7.65;;;;;;;3.32;100.00;103217.31;5245064;28;20495;-70
2022/01/22 00:23:10;;;;;;;18.02;8.35;;;;;;;3.32;100.00;103215.56;5251807;28;20029;-70
2022/01/22 00:25:41;;;;;;;16.63;8.20;;;;;;;3.33;100.00;103211.16;5246865;28;20032;-70
2022/01/22 00:28:13;;;;;;;18.70;8.45;;;;;;;3.32;100.00;103220.84;5248292;28;20023;-70
2022/01/22 00:30:44;;;;;;;14.30;7.55;;;;;;;3.32;100.00;103210.28;5254017;28;21604;-70
2022/01/22 00:33:16;;;;;;;19.30;7.72;;;;;;;3.34;100.00;103211.13;5246252;28;20025;-70
2022/01/22 00:35:47;;;;;;;16.77;7.53;;;;;;;3.34;100.00;103197.94;5247243;28;20044;-70
2022/01/22 00:38:19;;;;;;;14.93;7.88;;;;;;;3.32;100.00;103194.44;5249477;28;20055;-70
2022/01/22 00:40:51;;;;;;;17.60;7.97;;;;;;;3.33;100.00;103192.69;5254734;28;20074;-70
2022/01/22 00:43:23;;;;;;;18.45;8.05;;;;;;;3.33;100.00;103196.19;5261853;28;20108;-70
2022/01/22 00:45:54;;;;;;;16.02;8.15;;;;;;;3.33;100.00;103197.94;5253755;28;20035;-70
2022/01/22 00:48:26;;;;;;;16.10;8.15;;;;;;;3.34;100.00;103199.72;5243450;28;20110;-70
2022/01/22 00:50:57;;;;;;;17.92;8.32;;;;;;;3.39;100.00;103189.09;5241830;28;20560;-70
2022/01/22 00:53:29;;;;;;;18.05;8.48;;;;;;;3.35;100.00;103190.91;5249995;28;20381;-70
2022/01/22 00:56:00;;;;;;;12.85;7.93;;;;;;;3.36;100.00;103189.13;5240369;28;20029;-70
2022/01/22 00:58:31;;;;;;;19.70;9.05;;;;;;;3.35;100.00;103196.19;5246036;28;20027;-70
2022/01/22 01:01:04;;;;;;;20.20;9.75;;;;;;;3.36;100.00;103199.69;5247227;28;20070;-70
2022/01/22 01:03:36;;;;;;;15.80;8.85;;;;;;;3.37;100.00;103198.81;5245888;28;20029;-70
2022/01/22 01:06:07;;;;;;;20.17;9.90;;;;;;;3.38;100.00;103212.00;5246663;28;20513;-70
2022/01/22 01:08:38;;;;;;;19.10;9.55;;;;;;;3.38;100.00;103216.41;5256548;28;20021;-70
2022/01/22 01:11:12;;;;;;;16.15;8.75;;;;;;;3.38;100.00;103212.00;5245951;28;20041;-70
2022/01/22 01:13:48;;;;;;;15.10;9.60;;;;;;;3.39;100.00;103210.22;5234991;28;20025;-70
2022/01/22 01:33:06;;;;;;;18.00;10.65;;;;;;;3.41;100.00;103206.66;5246536;28;20033;-70
2022/01/22 01:35:39;;;;;;;22.38;10.73;;;;;;;3.43;100.00;103204.03;5256848;28;20098;-70
2022/01/22 01:38:11;;;;;;;18.70;10.88;;;;;;;3.44;100.00;103201.38;5244602;28;20479;-70
2022/01/22 01:40:44;;;;;;;18.65;10.43;;;;;;;3.43;100.00;103210.19;5251650;28;20026;-70
2022/01/22 01:43:22;;;;;;;21.67;11.43;;;;;;;3.44;100.00;103208.44;5253686;28;20032;-70
2022/01/22 01:45:54;;;;;;;19.73;11.60;;;;;;;3.47;100.00;103213.66;5246932;28;20116;-70
2022/01/22 01:48:30;;;;;;;21.05;11.43;;;;;;;3.44;100.00;103211.94;5250236;28;20040;-70
2022/01/22 01:51:01;;;;;;;24.55;11.75;;;;;;;3.43;100.00;103223.41;5249737;28;20025;-70
2022/01/22 01:59:03;;;;;;;22.63;12.68;;;;;;;3.40;100.00;103219.91;5244285;28;20123;-70
2022/01/22 02:01:34;;;;;;;21.63;13.10;;;;;;;3.42;100.00;103205.78;5252371;28;20029;-70
2022/01/22 02:04:08;;;;;;;23.17;13.82;;;;;;;3.41;100.00;103200.53;5249256;28;20033;-70
2022/01/22 02:06:40;;;;;;;20.70;13.18;;;;;;;3.44;100.00;103209.28;5252667;28;20060;-70
2022/01/22 02:09:11;;;;;;;26.73;14.48;;;;;;;3.43;100.00;103204.03;5248773;28;20487;-70
2022/01/22 02:11:44;;;;;;;23.02;13.80;;;;;;;3.42;100.00;103202.28;5260182;28;20040;-70
2022/01/22 02:23:53;;;;;;;28.30;15.75;;;;;;;3.45;100.00;103210.16;5253906;28;20048;-70
2022/01/22 02:25:55;;;;;;;28.20;16.83;;;;;;;3.44;100.00;103193.47;5254638;28;20044;-70
2022/01/22 02:28:26;;;;;;;26.20;16.40;;;;;;;3.47;100.00;103203.09;5252778;28;20029;-70
2022/01/22 02:31:08;;;;;;;28.02;17.48;;;;;;;3.47;100.00;103195.19;5247079;28;20039;-70
2022/01/22 02:33:50;;;;;;;28.17;19.05;;;;;;;3.47;100.00;103200.47;5246239;28;20040;-70
2022/01/22 02:36:29;;;;;;;34.08;19.80;;;;;;;3.44;100.00;103200.50;5245736;28;20029;-70
2022/01/22 02:39:16;;;;;;;31.25;18.77;;;;;;;3.42;100.00;103211.06;5242987;28;20036;-70
2022/01/22 02:41:50;;;;;;;37.95;19.55;;;;;;;3.46;100.00;103207.53;5250782;28;20033;-70
2022/01/22 02:44:32;;;;;;;31.70;19.92;;;;;;;3.39;100.00;103192.63;5250034;28;20037;-70
2022/01/22 02:47:06;;;;;;;35.47;22.48;;;;;;;3.37;100.00;103204.09;5250174;28;20031;-69
2022/01/22 02:49:38;;;;;;;38.53;21.92;;;;;;;3.37;100.00;103206.72;5241835;28;20066;-69
2022/01/22 02:52:10;;;;;;;34.30;21.40;;;;;;;3.35;100.00;103212.00;5245704;28;20028;-69
2022/01/22 02:54:41;;;;;;;32.47;21.50;;;;;;;3.34;100.00;103205.88;5243683;28;20486;-70
2022/01/22 02:57:13;;;;;;;34.08;21.30;;;;;;;3.35;100.00;103212.00;5244595;28;20076;-70
2022/01/22 02:59:44;;;;;;;35.58;21.60;;;;;;;3.36;100.00;103210.22;5243018;28;20024;-70
2022/01/22 03:02:16;;;;;;;37.90;21.75;;;;;;;3.36;100.00;103210.22;5244757;28;20745;-70
2022/01/22 03:04:47;;;;;;;36.00;22.02;;;;;;;3.44;100.00;103216.34;5242290;28;20127;-70
2022/01/22 03:07:18;;;;;;;37.42;22.35;;;;;;;3.40;100.00;103214.63;5244032;28;20040;-70
2022/01/22 03:09:51;;;;;;;35.33;22.05;;;;;;;3.38;100.00;103209.34;5243125;28;20035;-70
2022/01/22 03:18:38;;;;;;;37.65;23.63;;;;;;;3.39;100.00;103207.59;5250331;28;20483;-70
2022/01/22 03:21:02;;;;;;;38.83;22.90;;;;;;;3.39;100.00;103207.59;5246664;28;20189;-70
2022/01/22 03:29:18;;;;;;;45.60;24.00;;;;;;;3.36;100.00;103204.94;5239421;28;20422;-70
2022/01/22 03:31:50;;;;;;;43.03;23.63;;;;;;;3.41;100.00;103206.66;5242089;28;20033;-70
2022/01/22 03:34:21;;;;;;;43.47;24.48;;;;;;;3.39;100.00;103208.44;5244118;28;20039;-70
2022/01/22 03:36:53;;;;;;;39.58;24.45;;;;;;;3.40;100.00;103210.22;5244096;28;20033;-70
2022/01/22 03:39:24;;;;;;;42.15;25.10;;;;;;;3.39;100.00;103208.44;5241476;28;20030;-70
2022/01/22 03:41:55;;;;;;;46.63;26.50;;;;;;;3.41;100.00;103209.31;5243982;28;20115;-70
2022/01/22 03:44:27;;;;;;;45.63;25.85;;;;;;;3.42;100.00;103208.44;5247998;28;20479;-70
2022/01/22 03:46:58;;;;;;;46.20;25.30;;;;;;;3.42;100.00;103208.44;5248069;28;20495;-70
2022/01/22 03:49:29;;;;;;;44.05;26.55;;;;;;;3.43;100.00;103210.19;5252562;28;20378;-70
2022/01/22 03:52:00;;;;;;;49.50;27.98;;;;;;;3.43;100.00;103220.75;5244743;28;20033;-70
2022/01/22 03:54:32;;;;;;;48.50;27.23;;;;;;;3.45;100.00;103211.06;5243940;28;20033;-70
2022/01/22 03:57:04;;;;;;;48.38;28.38;;;;;;;3.46;100.00;103210.16;5240657;28;20067;-70
2022/01/22 03:59:35;;;;;;;54.88;29.20;;;;;;;3.46;100.00;103204.88;5254863;28;20029;-70
2022/01/22 04:05:01;;;;;;;46.28;29.20;;;;;;;3.51;100.00;103212.78;5240240;28;20049;-70
2022/01/22 04:08:06;;;;;;;58.10;31.83;;;;;;;3.50;100.00;103205.72;5241072;28;20099;-70
2022/01/22 04:10:28;;;;;;;56.88;30.80;;;;;;;3.50;100.00;103203.09;5243518;28;20025;-70
2022/01/22 04:13:04;;;;;;;57.95;31.92;;;;;;;3.50;100.00;103203.97;5252525;28;20033;-70
2022/01/22 04:15:39;;;;;;;50.33;30.10;;;;;;;3.52;100.00;103212.72;5248012;28;20037;-70
2022/01/22 04:27:09;;;;;;;64.32;33.35;;;;;;;3.56;100.00;103207.44;5226799;28;20422;-70
2022/01/22 04:29:41;;;;;;;58.00;32.67;;;;;;;3.56;100.00;103205.66;5246244;28;20388;-70
2022/01/22 04:32:12;;;;;;;62.70;33.53;;;;;;;3.54;100.00;103203.03;5247229;28;20040;-70
2022/01/22 04:34:43;;;;;;;62.58;33.45;;;;;;;3.58;100.00;103198.59;5248691;28;20028;-70
2022/01/22 04:37:18;;;;;;;61.47;33.63;;;;;;;3.55;100.00;103206.56;5252234;28;20060;-70
2022/01/22 04:39:49;;;;;;;61.47;33.78;;;;;;;3.58;100.00;103203.03;5246223;28;20032;-70
2022/01/22 04:42:20;;;;;;;69.65;35.65;;;;;;;3.58;100.00;103203.88;5249209;28;20033;-70
2022/01/22 04:45:03;;;;;;;65.55;34.92;;;;;;;3.59;100.00;103200.38;5246362;28;20033;-70
2022/01/22 04:47:46;;;;;;;64.50;35.40;;;;;;;3.60;100.00;103206.53;5249717;28;20032;-70
2022/01/22 04:55:43;;;;;;;64.00;34.35;;;;;;;3.66;100.00;103206.47;5248546;28;20041;-70
2022/01/22 04:58:14;;;;;;;64.10;34.65;;;;;;;3.65;100.00;103204.72;5252284;28;20143;-70
2022/01/22 05:00:46;;;;;;;63.83;34.15;;;;;;;3.64;100.00;103209.09;5246988;28;20047;-70
2022/01/22 05:03:17;;;;;;;63.35;34.45;;;;;;;3.65;100.00;103204.72;5248051;28;20090;-70
2022/01/22 05:05:49;;;;;;;59.22;33.38;;;;;;;3.66;100.00;103204.72;5248654;28;20360;-70
2022/01/22 05:08:20;;;;;;;67.75;34.92;;;;;;;3.67;100.00;103205.59;5252486;28;20417;-70
2022/01/22 05:10:51;;;;;;;63.78;33.90;;;;;;;3.68;100.00;103204.69;5249722;28;20130;-70
2022/01/22 05:13:22;;;;;;;63.75;33.58;;;;;;;3.68;100.00;103197.66;5252056;28;20463;-70
2022/01/22 05:15:54;;;;;;;66.72;34.20;;;;;;;3.69;100.00;103204.66;5247552;28;20029;-70
2022/01/22 05:18:25;;;;;;;60.72;33.40;;;;;;;3.73;100.00;103202.88;5248605;28;20075;-70
2022/01/22 05:21:07;;;;;;;70.40;34.25;;;;;;;3.71;100.00;103205.53;5245610;28;20021;-70
2022/01/22 05:23:40;;;;;;;61.53;32.67;;;;;;;3.72;100.00;103209.03;5252770;28;20095;-70
2022/01/22 05:37:44;;;;;;;65.53;34.15;;;;;;;3.79;100.00;103188.75;5252589;28;20475;-70
2022/01/22 05:40:15;;;;;;;61.92;32.92;;;;;;;3.79;100.00;103200.16;5249899;28;20024;-70
2022/01/22 05:42:47;;;;;;;61.28;32.25;;;;;;;3.77;100.00;103201.09;5246868;28;20071;-70
2022/01/22 05:45:18;;;;;;;58.90;32.78;;;;;;;3.76;100.00;103197.56;5246481;28;20034;-70
2022/01/22 05:47:49;;;;;;;60.72;32.40;;;;;;;3.78;100.00;103208.09;5247535;28;20090;-70
2022/01/22 05:50:32;;;;;;;62.35;33.13;;;;;;;3.79;100.00;103202.81;5244491;28;20021;-70
2022/01/22 05:53:13;;;;;;;57.88;31.77;;;;;;;3.79;100.00;103200.16;5243711;28;20021;-70
2022/01/22 06:01:19;;;;;;;62.53;33.42;;;;;;;3.79;100.00;103201.94;5239764;28;20033;-70
2022/01/22 06:03:50;;;;;;;56.97;32.50;;;;;;;3.79;100.00;103205.44;5239404;28;20036;-70
2022/01/22 06:06:22;;;;;;;60.70;32.50;;;;;;;3.80;100.00;103214.28;5243968;28;20052;-70
2022/01/22 06:08:54;;;;;;;60.05;32.63;;;;;;;3.81;100.00;103211.59;5240687;28;20092;-70
2022/01/22 06:11:29;;;;;;;62.75;32.75;;;;;;;3.82;100.00;103220.41;5242387;28;20037;-70
2022/01/22 06:14:00;;;;;;;56.88;31.38;;;;;;;3.85;100.00;103217.72;5242429;28;20032;-70
2022/01/22 06:16:32;;;;;;;66.60;34.10;;;;;;;3.85;100.00;103217.72;5247523;28;20028;-70
2022/01/22 06:19:03;;;;;;;55.42;30.90;;;;;;;3.85;100.00;103212.44;5247783;28;20048;-70
2022/01/22 06:21:34;;;;;;;62.88;33.03;;;;;;;3.85;100.00;103221.22;5247078;28;20044;-70
2022/01/22 06:24:07;;;;;;;66.30;32.25;;;;;;;3.86;100.00;103212.44;5244051;28;20028;-70
2022/01/22 06:26:39;;;;;;;62.50;31.42;;;;;;;3.86;100.00;103208.91;5247370;28;20320;-70
2022/01/22 06:29:11;;;;;;;60.40;31.95;;;;;;;3.85;100.00;103208.03;5250744;28;20446;-70
2022/01/22 06:31:42;;;;;;;57.38;32.00;;;;;;;3.84;100.00;103202.78;5245864;28;20106;-70
2022/01/22 06:34:14;;;;;;;68.78;33.20;;;;;;;3.85;100.00;103207.16;5245415;28;20032;-70
2022/01/22 06:36:45;;;;;;;66.80;33.22;;;;;;;3.86;100.00;103212.44;5250993;28;20491;-70
2022/01/22 06:39:19;;;;;;;63.35;32.28;;;;;;;3.86;100.00;103216.84;5249584;28;20123;-70
2022/01/22 06:41:50;;;;;;;60.47;31.27;;;;;;;3.87;100.00;103215.94;5244937;28;20811;-70
2022/01/22 06:44:24;;;;;;;58.78;31.83;;;;;;;3.85;100.00;103223.88;5248694;28;20029;-70
2022/01/22 06:46:55;;;;;;;58.13;30.45;;;;;;;3.88;100.00;103222.97;5249118;28;20028;-70
2022/01/22 06:49:26;;;;;;;61.08;30.17;;;;;;;3.88;100.00;103222.97;5251401;28;20036;-70
2022/01/22 06:51:58;;;;;;;65.45;30.20;;;;;;;3.88;100.00;103223.84;5249481;28;20040;-70
2022/01/22 06:54:29;;;;;;;57.95;30.55;;;;;;;3.91;100.00;103229.09;5250503;28;20063;-70
2022/01/22 06:57:00;;;;;;;59.38;29.65;;;;;;;3.95;100.00;103231.69;5250749;28;20181;-70
2022/01/22 06:59:31;;;;;;;52.58;28.92;;;;;;;3.96;100.00;103229.06;5250412;28;20029;-70
2022/01/22 07:02:03;;;;;;;53.58;28.98;;;;;;;3.97;100.00;103237.84;5250011;28;20032;-70
2022/01/22 07:04:37;;;;;;;56.40;28.95;;;;;;;3.99;100.00;103233.41;5252617;28;20032;-70
2022/01/22 07:07:09;;;;;;;51.17;26.58;;;;;;;3.97;100.00;103236.09;5248525;28;20171;-70
2022/01/22 07:09:41;;;;;;;58.35;28.58;;;;;;;3.96;100.00;103236.97;5250506;28;20486;-70
2022/01/22 07:12:13;;;;;;;49.60;26.80;;;;;;;3.99;100.00;103239.59;5248754;28;20106;-70
2022/01/22 07:14:49;;;;;;;51.53;27.75;;;;;;;3.99;100.00;103246.63;5254289;28;20052;-70
2022/01/22 07:17:20;;;;;;;;;;;;;;;4.05;100.00;103249.22;5251728;28;20029;-70
2022/01/22 07:19:53;;;;;;;48.20;25.55;;;;;;;4.03;100.00;103259.81;5249007;28;19921;-70
2022/01/22 07:25:05;;;;;;;51.80;27.40;;;;;;;4.02;100.00;103262.47;5251362;28;20064;-70
2022/01/22 07:27:36;;;;;;;57.15;27.23;;;;;;;4.02;100.00;103271.25;5248038;28;20059;-70
2022/01/22 07:30:08;;;;;;;56.10;27.67;;;;;;;4.05;100.00;103270.34;5252200;28;20029;-70
2022/01/22 07:32:43;;;;;;;55.53;27.52;;;;;;;4.07;100.00;103266.81;5251267;28;20475;-70
2022/01/22 07:35:17;;;;;;;;;;;;;;;4.12;100.00;103270.28;5253877;28;20031;-70
2022/01/22 07:37:48;;;;;;;51.60;27.02;;;;;;;4.07;100.00;103272.09;5252824;28;19944;-70
2022/01/22 07:40:19;;;;;;;54.15;25.50;;;;;;;4.08;100.00;103271.19;5255445;28;20123;-70
2022/01/22 07:42:50;;;;;;;48.50;27.40;;;;;;;4.10;100.00;103272.06;5255116;28;20020;-70
2022/01/22 07:45:22;;;;;;;52.67;26.42;;;;;;;4.15;100.00;103279.06;5252029;28;20428;-70
2022/01/22 07:47:54;;;;;;;47.95;26.00;;;;;;;4.12;100.00;103278.22;5253057;28;20040;-71
2022/01/22 07:50:25;;;;;;;52.58;26.98;;;;;;;4.15;100.00;103271.13;5251789;28;20024;-70
2022/01/22 07:52:57;;;;;;;53.30;27.00;;;;;;;4.16;100.00;103272.88;5251329;28;20037;-70
2022/01/22 07:55:29;;;;;;;58.22;27.42;;;;;;;4.16;100.00;103278.16;5251497;28;20305;-70
2022/01/22 07:58:01;;;;;;;49.55;27.05;;;;;;;4.20;100.00;103274.59;5249317;28;20142;-70
2022/01/22 08:00:32;;;;;;;53.30;25.65;;;;;;;4.20;100.00;103274.59;5251853;28;20025;-70
2022/01/22 08:03:04;;;;;;;52.03;26.73;;;;;;;4.20;100.00;103278.13;5249834;28;20025;-70
2022/01/22 08:05:36;;;;;;;47.53;26.90;;;;;;;4.23;100.00;103279.84;5247891;28;20028;-70
2022/01/22 08:08:07;;;;;;;50.08;25.52;;;;;;;4.22;100.00;103264.88;5245687;28;20468;-70
2022/01/22 08:10:38;;;;;;;53.28;26.33;;;;;;;4.25;100.00;103275.44;5246551;28;20046;-70
2022/01/22 08:13:11;;;;;;;53.00;27.63;;;;;;;4.26;100.00;103274.53;5246592;28;20067;-70
2022/01/22 08:15:42;;;;;;;56.47;27.45;;;;;;;4.27;100.00;103276.28;5247594;28;20425;-70
2022/01/22 08:18:13;;;;;;;51.55;25.83;;;;;;;4.27;100.00;103273.63;5249127;28;20024;-70
2022/01/22 08:20:44;;;;;;;48.67;25.83;;;;;;;4.27;100.00;103269.22;5248376;28;20099;-70
2022/01/22 08:23:16;;;;;;;42.13;24.80;;;;;;;4.28;100.00;103272.75;5248285;28;20055;-70
2022/01/22 08:25:48;;;;;;;49.67;26.13;;;;;;;4.34;100.00;103274.47;5247120;28;20033;-70
2022/01/22 08:31:20;;;;;;;44.90;24.00;;;;;;;4.38;100.00;103276.19;5248223;28;20693;-69
2022/01/22 08:36:43;;;;;;;44.78;23.05;;;;;;;4.44;100.00;103276.97;5246511;28;20049;-70
2022/01/22 08:39:17;;;;;;;44.67;23.25;;;;;;;4.44;100.00;103269.03;5243487;28;20627;-70
2022/01/22 08:41:48;;;;;;;42.47;22.73;;;;;;;4.46;100.00;103269.03;5250953;28;20039;-70
2022/01/22 08:44:19;;;;;;;39.90;23.02;;;;;;;4.50;100.00;103270.72;5244705;28;20025;-70
2022/01/22 08:46:51;;;;;;;42.75;22.75;;;;;;;4.56;100.00;103265.38;5255604;28;20627;-70
2022/01/22 08:49:22;;;;;;;37.28;21.17;;;;;;;4.59;100.00;103269.75;5253224;28;20029;-70
2022/01/22 08:51:54;;;;;;;40.60;21.45;;;;;;;4.62;100.00;103267.06;5251779;28;20024;-70
2022/01/22 08:54:25;;;;;;;40.83;22.05;;;;;;;4.64;100.00;103268.81;5251592;28;20382;-70
2022/01/22 08:56:57;;;;;;;38.60;20.42;;;;;;;4.68;100.00;103274.94;5253669;28;20050;-70
2022/01/22 08:59:28;;;;;;;38.30;20.60;;;;;;;4.68;100.00;103273.16;5251049;28;20098;-70
2022/01/22 09:02:00;;;;;;;33.63;19.85;;;;;;;4.71;100.00;103275.75;5253824;28;20104;-70
2022/01/22 09:04:32;;;;;;;35.72;19.52;;;;;;;4.76;100.00;103290.72;5246753;28;20037;-70
2022/01/22 09:07:04;;;;;;;36.42;19.83;;;;;;;4.77;100.00;103284.50;5246287;28;20051;-70
2022/01/22 09:09:36;;;;;;;34.92;19.02;;;;;;;4.83;100.00;103290.59;5249894;28;20029;-70
2022/01/22 09:12:09;;;;;;;39.30;19.65;;;;;;;4.86;100.00;103298.47;5247666;28;20099;-70
2022/01/22 09:14:41;;;;;;;35.83;19.85;;;;;;;4.91;100.00;103301.97;5249388;28;20032;-70
2022/01/22 09:17:13;;;;;;;38.45;20.13;;;;;;;4.94;100.00;103313.41;5250427;28;20092;-70
2022/01/22 09:19:47;;;;;;;36.25;19.45;;;;;;;5.06;100.00;103307.91;5252935;28;20033;-70
2022/01/22 09:22:18;;;;;;;39.42;20.77;;;;;;;5.00;100.00;103302.72;5248641;28;20030;-70
2022/01/22 09:24:50;;;;;;;35.33;19.27;;;;;;;5.09;100.00;103314.06;5247846;28;20039;-70
2022/01/22 09:27:22;;;;;;;35.13;18.88;;;;;;;5.12;100.00;103315.81;5249595;28;20029;-70
2022/01/22 09:29:53;;;;;;;41.60;19.17;;;;;;;5.08;100.00;103317.59;5244258;28;20407;-70
2022/01/22 09:32:24;;;;;;;35.58;19.45;;;;;;;5.15;100.00;103301.63;5251050;28;20026;-70
2022/01/22 09:34:56;;;;;;;32.67;18.52;;;;;;;5.13;100.00;103301.66;5249090;28;20386;-70
2022/01/22 09:37:27;;;;;;;31.35;19.10;;;;;;;5.16;100.00;103298.97;5255975;28;20037;-70
2022/01/22 09:39:58;;;;;;;34.20;18.85;;;;;;;5.19;100.00;103311.28;5252950;28;20036;-70
2022/01/22 09:42:29;;;;;;;33.03;19.25;;;;;;;5.19;100.00;103308.63;5253327;28;20829;-70
2022/01/22 09:45:03;;;;;;;34.55;20.23;;;;;;;5.24;100.00;103323.56;5249354;28;20107;-70
2022/01/22 09:47:35;;;;;;;34.83;19.50;;;;;;;5.23;100.00;103328.88;5257670;28;20091;-70
2022/01/22 09:50:06;;;;;;;28.52;18.95;;;;;;;5.23;100.00;103340.31;5247304;28;20032;-70
2022/01/22 09:52:39;;;;;;;32.03;18.80;;;;;;;5.24;100.00;103335.94;5249633;28;20105;-70
2022/01/22 09:55:11;;;;;;;34.70;19.55;;;;;;;5.25;100.00;103341.19;5254160;28;20033;-70
2022/01/22 09:57:44;;;;;;;37.10;19.80;;;;;;;5.22;100.00;103330.66;5255887;28;20067;-70
2022/01/22 10:00:19;;;;;;;37.13;19.33;;;;;;;5.26;100.00;103334.13;5249808;28;20033;-70
2022/01/22 10:02:54;;;;;;;34.95;19.30;;;;;;;5.27;100.00;103342.06;5247265;28;20060;-70
2022/01/22 10:05:25;;;;;;;33.83;19.83;;;;;;;5.33;100.00;103334.91;5257235;28;20394;-70
2022/01/22 10:08:21;;;;;;;30.58;18.63;;;;;;;5.41;100.00;103338.34;5255209;28;20033;-70
2022/01/22 10:10:53;;;;;;;31.15;19.55;;;;;;;5.37;100.00;103340.16;5251383;28;20056;-70
2022/01/22 10:13:59;;;;;;;30.38;18.25;;;;;;;5.45;100.00;103340.03;5259869;28;20029;-70
2022/01/22 10:16:35;;;;;;;30.65;19.27;;;;;;;5.40;100.00;103344.50;5257115;28;20071;-70
2022/01/22 10:19:24;;;;;;;40.90;20.15;;;;;;;5.44;100.00;103332.97;5252519;28;20212;-70
2022/01/22 10:22:00;;;;;;;35.85;19.67;;;;;;;5.43;100.00;103345.34;5251094;28;20030;-70
2022/01/22 10:24:49;;;;;;;33.03;19.15;;;;;;;5.44;100.00;103346.22;5247243;28;20033;-70
2022/01/22 10:27:34;;;;;;;29.95;19.23;;;;;;;5.47;100.00;103340.88;5252643;28;20033;-70
2022/01/22 10:30:15;;;;;;;33.10;19.83;;;;;;;5.55;100.00;103344.28;5253260;28;20534;-70
2022/01/22 10:35:24;;;;;;;30.15;19.80;;;;;;;5.52;100.00;103344.31;5254523;28;20025;-70
2022/01/22 10:37:58;;;;;;;31.48;19.90;;;;;;;5.53;100.00;103348.72;5256266;28;20044;-70
2022/01/22 10:40:35;;;;;;;34.60;19.23;;;;;;;5.52;100.00;103341.66;5257816;28;20178;-70
2022/01/22 10:48:56;;;;;;;33.90;18.50;;;;;;;5.53;100.00;103332.84;5252544;28;20056;-70
2022/01/22 10:51:30;;;;;;;35.28;20.45;;;;;;;5.52;100.00;103346.97;5248853;28;20028;-70
2022/01/22 10:54:02;;;;;;;34.63;21.05;;;;;;;5.52;100.00;103349.63;5250097;28;20075;-70
2022/01/22 10:56:34;;;;;;;37.20;19.60;;;;;;;5.57;100.00;103345.13;5260172;28;20433;-70
2022/01/22 10:59:10;;;;;;;36.20;20.05;;;;;;;5.54;100.00;103350.47;5254227;28;20086;-70
2022/01/22 11:01:46;;;;;;;34.33;20.27;;;;;;;5.53;100.00;103351.38;5251250;28;20107;-70
2022/01/22 11:04:24;;;;;;;36.53;21.10;;;;;;;5.54;100.00;103352.25;5257127;28;20199;-70
2022/01/22 11:06:56;;;;;;;34.60;20.48;;;;;;;5.55;100.00;103346.94;5252363;28;20032;-70
2022/01/22 11:09:30;;;;;;;33.95;21.10;;;;;;;5.54;100.00;103342.53;5256323;28;20031;-70
2022/01/22 11:12:05;;;;;;;36.03;21.00;;;;;;;5.58;100.00;103346.91;5241956;28;20061;-70
2022/01/22 11:14:38;;;;;;;31.00;19.70;;;;;;;5.57;100.00;103337.19;5254552;28;20028;-70
2022/01/22 11:17:10;;;;;;;34.00;19.88;;;;;;;5.58;100.00;103340.72;5254638;28;20040;-70
2022/01/22 11:19:45;;;;;;;32.58;19.50;;;;;;;5.62;100.00;103332.72;5249980;28;20029;-70
2022/01/22 11:22:17;;;;;;;30.15;19.25;;;;;;;5.63;100.00;103336.22;5242645;28;20257;-70
2022/01/22 11:24:51;;;;;;;35.63;21.17;;;;;;;5.64;100.00;103319.44;5251816;28;20517;-70
2022/01/22 11:27:22;;;;;;;36.10;21.33;;;;;;;5.61;100.00;103311.53;5245037;28;20032;-70
2022/01/22 11:29:58;;;;;;;32.95;20.20;;;;;;;5.72;100.00;103314.03;5255956;28;20544;-70
2022/01/22 11:32:54;;;;;;;32.42;20.92;;;;;;;5.74;100.00;103317.53;5246828;28;20037;-70
2022/01/22 11:35:48;;;;;;;32.47;20.92;;;;;;;5.76;100.00;103319.22;5242731;28;20458;-70
2022/01/22 11:38:27;;;;;;;32.88;22.08;;;;;;;5.72;100.00;103319.31;5247495;28;20028;-70
2022/01/22 11:41:04;;;;;;;35.45;21.58;;;;;;;5.72;100.00;103329.91;5251523;28;20028;-69
2022/01/22 11:44:07;;;;;;;35.33;21.42;;;;;;;5.76;100.00;103316.59;5255204;28;20425;-69
2022/01/22 11:46:58;;;;;;;35.92;22.00;;;;;;;5.73;100.00;103319.28;5249191;28;20369;-70
2022/01/22 11:49:31;;;;;;;37.42;22.65;;;;;;;5.75;100.00;103313.97;5253676;28;20086;-70
2022/01/22 11:52:08;;;;;;;37.50;23.13;;;;;;;5.77;100.00;103312.16;5251251;28;20056;-70
2022/01/22 11:55:01;;;;;;;37.80;22.80;;;;;;;5.80;100.00;103318.28;5247759;28;20071;-70
2022/01/22 11:57:32;;;;;;;36.15;23.83;;;;;;;5.81;100.00;103313.84;5261920;28;20120;-70
2022/01/22 12:00:19;;;;;;;37.88;23.23;;;;;;;5.82;100.00;103321.78;5246356;28;20060;-70
2022/01/22 12:03:08;;;;;;;34.85;22.50;;;;;;;5.83;100.00;103318.25;5251886;28;20033;-70
2022/01/22 12:05:55;;;;;;;42.28;24.20;;;;;;;5.83;100.00;103318.25;5252887;28;20435;-70
2022/01/22 12:08:26;;;;;;;41.90;23.75;;;;;;;5.80;100.00;103322.72;5247293;28;20120;-70
2022/01/22 12:16:40;;;;;;;44.00;24.38;;;;;;;5.81;100.00;103317.41;5250256;28;20038;-70
2022/01/22 12:19:37;;;;;;;37.28;23.20;;;;;;;5.84;100.00;103313.81;5255176;28;20025;-70
2022/01/22 12:22:31;;;;;;;45.78;24.60;;;;;;;5.85;100.00;103310.28;5242959;28;20395;-70
2022/01/22 12:25:08;;;;;;;38.90;23.90;;;;;;;5.78;100.00;103313.91;5247750;28;20020;-70
2022/01/22 12:27:47;;;;;;;44.70;25.75;;;;;;;5.75;100.00;103313.97;5251598;28;20029;-70
2022/01/22 12:30:43;;;;;;;43.30;25.25;;;;;;;5.75;100.00;103325.41;5249239;28;20569;-70
2022/01/22 12:33:35;;;;;;;39.40;24.20;;;;;;;5.74;100.00;103326.34;5252301;28;20032;-70
2022/01/22 12:36:16;;;;;;;43.40;25.80;;;;;;;5.73;100.00;103324.56;5236119;28;20041;-70
2022/01/22 12:39:11;;;;;;;36.38;24.63;;;;;;;5.70;100.00;103322.84;5254543;28;20029;-69
2022/01/22 12:41:51;;;;;;;45.53;26.20;;;;;;;5.61;100.00;103322.13;5256570;28;20176;-69
2022/01/22 12:44:29;;;;;;;44.28;25.98;;;;;;;5.60;100.00;103321.25;5251433;28;20383;-69
2022/01/22 12:47:11;;;;;;;43.67;26.60;;;;;;;5.59;100.00;103318.63;5252327;28;20024;-69
2022/01/22 12:49:43;;;;;;;41.45;26.27;;;;;;;5.59;100.00;103323.94;5253248;28;20090;-69
2022/01/22 12:52:14;;;;;;;47.42;26.65;;;;;;;5.58;100.00;103331.00;5241638;28;20017;-68
2022/01/22 12:54:48;;;;;;;40.50;27.27;;;;;;;5.55;100.00;103323.09;5253268;28;20356;-69
2022/01/22 12:57:22;;;;;;;45.28;27.10;;;;;;;5.54;100.00;103329.28;5254346;28;20037;-69
2022/01/22 13:00:13;;;;;;;42.38;26.52;;;;;;;5.53;100.00;103324.91;5253166;28;20025;-69
2022/01/22 13:02:46;;;;;;;39.97;25.55;;;;;;;5.49;100.00;103325.84;5254699;28;20071;-69
2022/01/22 13:05:19;;;;;;;48.92;28.33;;;;;;;5.47;100.00;103320.56;5243568;28;20021;-70
2022/01/22 13:07:54;;;;;;;43.87;28.13;;;;;;;5.53;100.00;103330.19;5251027;28;20086;-70
2022/01/22 13:10:37;;;;;;;55.08;28.50;;;;;;;5.46;100.00;103324.09;5254005;28;20298;-69
2022/01/22 13:13:10;;;;;;;48.00;27.17;;;;;;;5.45;100.00;103329.44;5248171;28;20505;-68
2022/01/22 13:15:41;;;;;;;43.08;26.23;;;;;;;5.40;100.00;103324.19;5251442;28;20032;-69
2022/01/22 13:18:13;;;;;;;63.95;30.13;;;;;;;5.41;100.00;103325.09;5242220;28;20035;-69
2022/01/22 13:20:46;;;;;;;42.22;26.13;;;;;;;5.41;100.00;103314.50;5255690;28;20036;-69
2022/01/22 13:23:20;;;;;;;45.75;26.63;;;;;;;5.42;100.00;103321.53;5248185;28;20036;-69
2022/01/22 13:25:53;;;;;;;44.33;26.17;;;;;;;5.39;100.00;103313.63;5250282;28;20024;-69